createdAt,value
2017-11-09T06:05:23.601Z,3
2017-11-09T06:12:55.004Z,7
2017-11-09T06:16:55.349Z,10
2017-11-09T06:19:24.648Z,13
2017-11-09T06:20:55.647Z,17
2017-11-09T06:23:24.944Z,20
2017-11-09T06:25:25.113Z,23
2017-11-09T06:26:56.097Z,27
2017-11-09T06:28:25.413Z,30
2017-11-09T06:30:25.556Z,33
2017-11-09T06:31:56.466Z,37
2017-11-09T06:32:56.499Z,40
2017-11-09T06:33:56.583Z,43
2017-11-09T06:34:56.645Z,47
2017-11-09T06:35:56.703Z,50
2017-11-09T06:36:56.802Z,53
2017-11-09T06:38:26.113Z,57
2017-11-09T06:40:26.277Z,60
2017-11-09T06:41:26.316Z,63
2017-11-09T06:42:26.385Z,67
2017-11-09T06:42:57.217Z,70
2017-11-09T06:43:57.327Z,73
2017-11-09T06:44:26.536Z,77
2017-11-09T06:45:26.597Z,80
2017-11-09T06:46:26.634Z,83
2017-11-09T06:48:26.781Z,87
2017-11-09T06:51:57.863Z,90
2017-11-09T06:52:57.936Z,93
2017-11-09T06:53:27.244Z,100
2017-11-09T06:53:58.024Z,110
2017-11-09T06:54:27.254Z,117
2017-11-09T06:54:58.292Z,123
2017-11-09T06:55:27.320Z,133
2017-11-09T06:55:58.149Z,137
2017-11-09T06:56:27.383Z,143
2017-11-09T06:56:58.262Z,150
2017-11-09T06:57:27.462Z,153
2017-11-09T06:57:58.337Z,160
2017-11-09T06:58:27.556Z,167
2017-11-09T06:58:58.471Z,170
2017-11-09T06:59:27.566Z,173
2017-11-09T06:59:58.527Z,177
2017-11-09T07:00:27.680Z,183
2017-11-09T07:00:58.594Z,187
2017-11-09T07:01:27.754Z,190
2017-11-09T07:01:58.665Z,197
2017-11-09T07:02:27.802Z,200
2017-11-09T07:02:58.750Z,207
2017-11-09T07:03:27.921Z,210
2017-11-09T07:03:58.928Z,213
2017-11-09T07:04:27.954Z,220
2017-11-09T07:04:58.866Z,223
2017-11-09T07:05:28.041Z,233
2017-11-09T07:05:58.967Z,240
2017-11-09T07:06:28.111Z,247
2017-11-09T07:06:59.031Z,257
2017-11-09T07:07:28.152Z,270
2017-11-09T07:07:59.036Z,280
2017-11-09T07:08:28.328Z,290
2017-11-09T07:08:59.120Z,303
2017-11-09T07:09:28.329Z,317
2017-11-09T07:09:59.247Z,330
2017-11-09T07:10:28.538Z,343
2017-11-09T07:10:59.315Z,353
2017-11-09T07:11:28.462Z,367
2017-11-09T07:11:59.325Z,377
2017-11-09T07:12:28.563Z,393
2017-11-09T07:12:59.450Z,410
2017-11-09T07:13:28.731Z,427
2017-11-09T07:13:59.512Z,453
2017-11-09T07:14:28.718Z,480
2017-11-09T07:14:59.559Z,510
2017-11-09T07:15:28.840Z,537
2017-11-09T07:15:59.663Z,560
2017-11-09T07:16:28.816Z,580
2017-11-09T07:16:59.707Z,600
2017-11-09T07:17:28.939Z,620
2017-11-09T07:17:59.784Z,640
2017-11-09T07:18:29.013Z,663
2017-11-09T07:18:59.854Z,690
2017-11-09T07:19:29.073Z,713
2017-11-09T07:19:59.923Z,737
2017-11-09T07:20:29.166Z,760
2017-11-09T07:21:00.026Z,787
2017-11-09T07:21:29.238Z,813
2017-11-09T07:22:00.080Z,840
2017-11-09T07:22:29.291Z,860
2017-11-09T07:23:00.208Z,883
2017-11-09T07:23:29.329Z,907
2017-11-09T07:24:00.713Z,927
2017-11-09T07:24:29.423Z,950
2017-11-09T07:25:00.751Z,973
2017-11-09T07:25:29.534Z,1000
2017-11-09T07:26:00.696Z,1030
2017-11-09T07:26:29.582Z,1067
2017-11-09T07:27:00.735Z,1107
2017-11-09T07:27:29.628Z,1150
2017-11-09T07:28:00.899Z,1187
2017-11-09T07:28:29.693Z,1217
2017-11-09T07:29:00.735Z,1247
2017-11-09T07:29:29.784Z,1270
2017-11-09T07:30:00.950Z,1287
2017-11-09T07:30:29.844Z,1303
2017-11-09T07:31:00.727Z,1310
2017-11-09T07:31:29.921Z,1313
2017-11-09T07:32:00.808Z,1317
2017-11-09T07:32:30.017Z,1320
2017-11-09T07:33:00.881Z,1323
2017-11-09T07:33:30.066Z,1327
2017-11-09T07:34:00.999Z,1337
2017-11-09T07:34:30.190Z,1350
2017-11-09T07:35:01.022Z,1367
2017-11-09T07:35:30.256Z,1373
2017-11-09T07:36:30.281Z,1370
2017-11-09T07:37:30.373Z,1380
2017-11-09T07:38:01.261Z,1407
2017-11-09T07:38:30.425Z,1450
2017-11-09T07:39:01.357Z,1510
2017-11-09T07:39:30.520Z,1593
2017-11-09T07:40:01.421Z,1687
2017-11-09T07:40:30.561Z,1767
2017-11-09T07:41:01.525Z,1833
2017-11-09T07:41:30.638Z,1890
2017-11-09T07:42:01.587Z,1937
2017-11-09T07:42:30.741Z,1990
2017-11-09T07:43:01.629Z,2037
2017-11-09T07:43:30.865Z,2073
2017-11-09T07:44:01.760Z,2100
2017-11-09T07:44:30.855Z,2103
2017-11-09T07:45:01.799Z,2090
2017-11-09T07:45:30.929Z,2077
2017-11-09T07:46:01.905Z,2073
2017-11-09T07:46:31.057Z,2110
2017-11-09T07:47:01.955Z,2180
2017-11-09T07:47:31.102Z,2270
2017-11-09T07:48:02.012Z,2360
2017-11-09T07:48:31.225Z,2450
2017-11-09T07:49:02.167Z,2530
2017-11-09T07:49:31.272Z,2593
2017-11-09T07:50:02.184Z,2653
2017-11-09T07:50:31.392Z,2697
2017-11-09T07:51:02.272Z,2727
2017-11-09T07:51:31.401Z,2737
2017-11-09T07:52:02.371Z,2727
2017-11-09T07:52:31.508Z,2690
2017-11-09T07:53:02.371Z,2657
2017-11-09T07:53:31.568Z,2633
2017-11-09T07:54:02.484Z,2627
2017-11-09T07:54:31.641Z,2633
2017-11-09T07:55:02.522Z,2647
2017-11-09T07:55:31.757Z,2667
2017-11-09T07:56:02.600Z,2690
2017-11-09T07:56:31.796Z,2723
2017-11-09T07:57:02.653Z,2767
2017-11-09T07:57:31.900Z,2810
2017-11-09T07:58:02.755Z,2860
2017-11-09T07:58:31.988Z,2897
2017-11-09T07:59:02.852Z,2923
2017-11-09T07:59:32.041Z,2937
2017-11-09T08:00:02.942Z,2933
2017-11-09T08:00:32.111Z,2923
2017-11-09T08:01:02.971Z,2917
2017-11-09T08:01:32.207Z,2920
2017-11-09T08:02:03.102Z,2910
2017-11-09T08:02:32.261Z,2897
2017-11-09T08:03:03.136Z,2883
2017-11-09T08:03:32.305Z,2880
2017-11-09T08:04:03.209Z,2873
2017-11-09T08:04:32.377Z,2870
2017-11-09T08:05:03.321Z,2853
2017-11-09T08:05:32.470Z,2800
2017-11-09T08:06:03.379Z,2700
2017-11-09T08:06:32.558Z,2553
2017-11-09T08:07:03.461Z,2407
2017-11-09T08:07:32.649Z,2283
2017-11-09T08:08:03.528Z,2197
2017-11-09T08:08:32.682Z,2157
2017-11-09T08:09:03.681Z,2160
2017-11-09T08:09:32.774Z,2190
2017-11-09T08:10:03.647Z,2237
2017-11-09T08:10:32.839Z,2260
2017-11-09T08:11:02.860Z,2240
2017-11-09T08:11:32.892Z,2203
2017-11-09T08:12:03.772Z,2173
2017-11-09T08:12:32.963Z,2153
2017-11-09T08:13:03.985Z,2160
2017-11-09T08:13:33.058Z,2180
2017-11-09T08:14:03.967Z,2223
2017-11-09T08:14:33.164Z,2267
2017-11-09T08:15:04.055Z,2293
2017-11-09T08:15:33.204Z,2290
2017-11-09T08:16:04.097Z,2347
2017-11-09T08:16:33.343Z,2383
2017-11-09T08:17:04.233Z,2413
2017-11-09T08:17:33.365Z,2473
2017-11-09T08:18:04.280Z,2553
2017-11-09T08:18:33.437Z,2650
2017-11-09T08:19:04.363Z,2770
2017-11-09T08:19:33.584Z,2900
2017-11-09T08:20:04.437Z,3053
2017-11-09T08:20:33.634Z,3220
2017-11-09T08:21:04.471Z,3430
2017-11-09T08:21:33.638Z,3623
2017-11-09T08:22:04.595Z,3743
2017-11-09T08:22:33.781Z,3800
2017-11-09T08:23:04.715Z,3837
2017-11-09T08:23:33.789Z,3840
2017-11-09T08:24:04.723Z,3783
2017-11-09T08:24:34.107Z,3693
2017-11-09T08:25:04.804Z,3580
2017-11-09T08:25:33.960Z,3460
2017-11-09T08:26:04.895Z,3333
2017-11-09T08:26:34.021Z,3220
2017-11-09T08:27:04.952Z,3120
2017-11-09T08:27:34.103Z,2987
2017-11-09T08:28:04.996Z,2840
2017-11-09T08:28:34.165Z,2723
2017-11-09T08:29:05.058Z,2603
2017-11-09T08:29:34.398Z,2513
2017-11-09T08:30:05.169Z,2470
2017-11-09T08:30:34.301Z,2447
2017-11-09T08:31:05.250Z,2410
2017-11-09T08:31:34.405Z,2357
2017-11-09T08:32:05.281Z,2320
2017-11-09T08:32:34.493Z,2337
2017-11-09T08:33:05.360Z,2390
2017-11-09T08:33:34.581Z,2447
2017-11-09T08:34:05.450Z,2487
2017-11-09T08:34:34.647Z,2537
2017-11-09T08:35:05.489Z,2597
2017-11-09T08:35:34.653Z,2667
2017-11-09T08:36:05.541Z,2773
2017-11-09T08:36:34.786Z,2837
2017-11-09T08:37:05.643Z,2903
2017-11-09T08:37:34.885Z,2987
2017-11-09T08:38:05.740Z,3053
2017-11-09T08:38:34.934Z,3107
2017-11-09T08:39:05.803Z,3200
2017-11-09T08:39:35.034Z,3237
2017-11-09T08:40:05.835Z,3223
2017-11-09T08:40:35.065Z,3300
2017-11-09T08:41:05.902Z,3393
2017-11-09T08:41:35.132Z,3473
2017-11-09T08:42:05.970Z,3503
2017-11-09T08:42:35.188Z,3550
2017-11-09T08:43:06.092Z,3570
2017-11-09T08:43:35.306Z,3553
2017-11-09T08:44:06.141Z,3547
2017-11-09T08:44:35.351Z,3697
2017-11-09T08:45:06.254Z,3893
2017-11-09T08:45:35.427Z,4077
2017-11-09T08:46:06.330Z,4140
2017-11-09T08:46:35.502Z,4560
2017-11-09T08:47:06.417Z,5060
2017-11-09T08:47:35.592Z,4757
2017-11-09T08:48:06.484Z,4817
2017-11-09T08:48:35.646Z,4977
2017-11-09T08:49:06.515Z,4997
2017-11-09T08:49:35.686Z,5103
2017-11-09T08:50:06.604Z,5020
2017-11-09T08:50:35.757Z,4890
2017-11-09T08:51:06.659Z,4897
2017-11-09T08:51:35.905Z,4813
2017-11-09T08:52:06.750Z,4583
2017-11-09T08:52:35.908Z,4653
2017-11-09T08:53:06.816Z,4520
2017-11-09T08:53:35.973Z,4430
2017-11-09T08:54:06.861Z,4320
2017-11-09T08:54:36.042Z,4227
2017-11-09T08:55:06.941Z,4050
2017-11-09T08:55:36.183Z,3783
2017-11-09T08:56:06.999Z,3480
2017-11-09T08:56:36.197Z,3230
2017-11-09T08:57:07.089Z,3067
2017-11-09T08:57:36.303Z,2890
2017-11-09T08:58:07.182Z,2693
2017-11-09T08:58:36.391Z,2520
2017-11-09T08:59:07.236Z,2407
2017-11-09T08:59:36.480Z,2337
2017-11-09T09:00:07.363Z,2253
2017-11-09T09:00:36.545Z,2180
2017-11-09T09:01:07.417Z,2117
2017-11-09T09:01:36.579Z,2090
2017-11-09T09:02:07.492Z,2100
2017-11-09T09:02:36.676Z,2150
2017-11-09T09:03:07.559Z,2213
2017-11-09T09:03:36.721Z,2270
2017-11-09T09:04:07.659Z,2343
2017-11-09T09:04:36.782Z,2390
2017-11-09T09:05:07.713Z,2393
2017-11-09T09:05:36.860Z,2390
2017-11-09T09:06:07.775Z,2450
2017-11-09T09:06:36.917Z,2573
2017-11-09T09:07:07.849Z,2667
2017-11-09T09:07:37.014Z,2737
2017-11-09T09:08:07.969Z,2843
2017-11-09T09:08:37.073Z,3003
2017-11-09T09:09:09.190Z,3153
2017-11-09T09:09:37.154Z,3253
2017-11-09T09:10:08.120Z,3300
2017-11-09T09:10:37.240Z,3333
2017-11-09T09:11:08.183Z,3393
2017-11-09T09:11:37.316Z,3450
2017-11-09T09:12:08.204Z,3473
2017-11-09T09:12:37.404Z,3500
2017-11-09T09:13:08.304Z,3467
2017-11-09T09:13:37.456Z,3407
2017-11-09T09:14:08.350Z,3400
2017-11-09T09:14:37.542Z,3427
2017-11-09T09:15:08.455Z,3557
2017-11-09T09:15:37.630Z,3723
2017-11-09T09:16:08.509Z,3843
2017-11-09T09:16:37.731Z,3897
2017-11-09T09:17:08.572Z,3883
2017-11-09T09:17:37.792Z,3783
2017-11-09T09:18:08.655Z,3697
2017-11-09T09:18:37.861Z,3580
2017-11-09T09:19:08.713Z,3587
2017-11-09T09:19:37.943Z,3640
2017-11-09T09:20:08.800Z,3807
2017-11-09T09:20:37.990Z,3993
2017-11-09T09:21:08.836Z,4190
2017-11-09T09:21:38.073Z,4463
2017-11-09T09:22:08.917Z,4730
2017-11-09T09:22:38.174Z,5027
2017-11-09T09:23:09.025Z,5183
2017-11-09T09:23:38.238Z,5240
2017-11-09T09:24:09.065Z,5203
2017-11-09T09:24:38.308Z,4947
2017-11-09T09:25:09.139Z,4637
2017-11-09T09:25:38.348Z,4420
2017-11-09T09:26:09.287Z,4397
2017-11-09T09:26:38.449Z,4620
2017-11-09T09:27:09.329Z,4957
2017-11-09T09:27:38.494Z,5237
2017-11-09T09:28:09.445Z,5477
2017-11-09T09:28:38.574Z,5457
2017-11-09T09:29:09.476Z,5703
2017-11-09T09:29:38.688Z,5997
2017-11-09T09:30:09.574Z,6203
2017-11-09T09:30:38.720Z,6550
2017-11-09T09:31:09.636Z,7037
2017-11-09T09:31:38.789Z,7980
2017-11-09T09:32:09.683Z,9067
2017-11-09T09:32:38.872Z,15167
2017-11-09T09:33:09.743Z,15347
2017-11-09T09:33:38.937Z,15460
2017-11-09T09:34:09.812Z,14630
2017-11-09T09:34:39.004Z,12333
2017-11-09T09:35:09.913Z,12623
2017-11-09T09:35:39.075Z,13290
2017-11-09T09:36:09.959Z,11480
2017-11-09T09:36:39.151Z,9597
2017-11-09T09:37:10.055Z,6897
2017-11-09T09:37:39.246Z,6030
2017-11-09T09:38:10.127Z,5180
2017-11-09T09:38:39.376Z,4847
2017-11-09T09:39:10.194Z,4713
2017-11-09T09:39:39.427Z,4563
2017-11-09T09:40:10.410Z,4310
2017-11-09T09:40:39.489Z,4007
2017-11-09T09:41:10.395Z,3767
2017-11-09T09:41:39.562Z,3520
2017-11-09T09:42:10.467Z,3327
2017-11-09T09:42:39.643Z,3120
2017-11-09T09:43:10.561Z,2883
2017-11-09T09:43:39.693Z,2783
2017-11-09T09:44:10.614Z,2813
2017-11-09T09:44:39.761Z,2853
2017-11-09T09:45:10.747Z,2867
2017-11-09T09:46:10.779Z,2877
2017-11-09T09:46:39.922Z,2883
2017-11-09T09:47:10.828Z,2920
2017-11-09T09:47:40.029Z,2977
2017-11-09T09:48:10.934Z,2990
2017-11-09T09:48:40.067Z,2953
2017-11-09T09:49:10.973Z,2873
2017-11-09T09:49:40.194Z,2887
2017-11-09T09:50:11.067Z,2903
2017-11-09T09:50:40.268Z,2900
2017-11-09T09:51:11.206Z,2897
2017-11-09T09:51:40.317Z,2937
2017-11-09T09:52:11.246Z,2940
2017-11-09T09:53:11.274Z,2963
2017-11-09T09:53:40.514Z,2983
2017-11-09T09:54:11.397Z,2920
2017-11-09T09:54:40.577Z,2823
2017-11-09T09:55:11.496Z,2730
2017-11-09T09:55:40.649Z,2657
2017-11-09T09:56:11.510Z,2600
2017-11-09T09:56:40.741Z,2547
2017-11-09T09:57:11.558Z,2470
2017-11-09T09:57:40.750Z,2440
2017-11-09T09:58:11.640Z,2410
2017-11-09T09:58:40.863Z,2437
2017-11-09T09:59:11.683Z,2480
2017-11-09T09:59:40.931Z,2557
2017-11-09T10:00:11.877Z,2623
2017-11-09T10:00:40.980Z,2687
2017-11-09T10:01:11.846Z,2737
2017-11-09T10:01:41.087Z,2793
2017-11-09T10:02:11.905Z,2827
2017-11-09T10:02:41.148Z,2810
2017-11-09T10:03:11.983Z,2830
2017-11-09T10:03:41.221Z,2863
2017-11-09T10:04:12.055Z,2913
2017-11-09T10:04:41.302Z,2947
2017-11-09T10:05:12.400Z,2917
2017-11-09T10:05:41.339Z,2820
2017-11-09T10:06:12.206Z,2753
2017-11-09T10:06:41.444Z,2720
2017-11-09T10:07:12.289Z,2730
2017-11-09T10:07:41.505Z,2800
2017-11-09T10:08:12.981Z,2983
2017-11-09T10:08:41.550Z,3180
2017-11-09T10:09:12.462Z,3340
2017-11-09T10:09:41.642Z,3467
2017-11-09T10:10:12.537Z,3550
2017-11-09T10:10:41.733Z,3597
2017-11-09T10:11:12.591Z,3557
2017-11-09T10:11:41.758Z,3530
2017-11-09T10:12:12.639Z,3533
2017-11-09T10:12:41.835Z,3580
2017-11-09T10:13:12.799Z,3647
2017-11-09T10:13:41.902Z,3653
2017-11-09T10:14:12.783Z,3610
2017-11-09T10:14:41.974Z,3547
2017-11-09T10:15:12.867Z,3487
2017-11-09T10:15:42.088Z,3450
2017-11-09T10:16:12.930Z,3417
2017-11-09T10:16:42.131Z,3420
2017-11-09T10:17:13.014Z,3463
2017-11-09T10:17:42.258Z,3517
2017-11-09T10:18:13.109Z,3590
2017-11-09T10:18:42.276Z,3650
2017-11-09T10:19:13.162Z,3693
2017-11-09T10:19:42.420Z,3760
2017-11-09T10:20:13.244Z,3780
2017-11-09T10:20:42.537Z,3940
2017-11-09T10:21:13.373Z,4103
2017-11-09T10:21:42.536Z,4333
2017-11-09T10:22:13.428Z,4617
2017-11-09T10:22:42.613Z,4860
2017-11-09T10:23:13.565Z,5087
2017-11-09T10:23:42.768Z,5303
2017-11-09T10:24:13.594Z,5443
2017-11-09T10:24:42.731Z,5543
2017-11-09T10:25:13.644Z,5670
2017-11-09T10:25:42.857Z,5727
2017-11-09T10:26:13.727Z,5667
2017-11-09T10:26:42.876Z,5527
2017-11-09T10:27:13.797Z,5433
2017-11-09T10:27:42.945Z,5387
2017-11-09T10:28:13.831Z,5323
2017-11-09T10:28:43.020Z,5293
2017-11-09T10:29:13.939Z,5313
2017-11-09T10:29:43.142Z,5360
2017-11-09T10:30:14.031Z,5297
2017-11-09T10:30:43.237Z,5277
2017-11-09T10:31:14.091Z,5220
2017-11-09T10:31:43.279Z,5127
2017-11-09T10:32:14.207Z,4977
2017-11-09T10:32:43.394Z,4777
2017-11-09T10:33:14.269Z,4627
2017-11-09T10:33:43.453Z,4463
2017-11-09T10:34:14.290Z,4317
2017-11-09T10:34:43.537Z,4260
2017-11-09T10:35:14.382Z,4217
2017-11-09T10:35:43.879Z,4147
2017-11-09T10:36:14.494Z,4137
2017-11-09T10:36:43.691Z,4133
2017-11-09T10:37:14.561Z,4137
2017-11-09T10:37:43.725Z,4140
2017-11-09T10:38:14.584Z,4113
2017-11-09T10:38:43.813Z,4130
2017-11-09T10:39:14.753Z,4173
2017-11-09T10:39:43.966Z,4167
2017-11-09T10:40:14.810Z,4160
2017-11-09T10:40:44.092Z,4143
2017-11-09T10:41:14.892Z,4193
2017-11-09T10:41:44.101Z,4297
2017-11-09T10:42:14.949Z,4350
2017-11-09T10:42:44.218Z,4443
2017-11-09T10:43:15.019Z,4523
2017-11-09T10:43:44.242Z,4637
2017-11-09T10:44:15.109Z,4723
2017-11-09T10:44:44.304Z,4760
2017-11-09T10:45:15.226Z,4797
2017-11-09T10:45:45.922Z,4850
2017-11-09T10:46:15.285Z,4917
2017-11-09T10:46:44.482Z,4990
2017-11-09T10:47:15.389Z,5080
2017-11-09T10:47:44.498Z,5213
2017-11-09T10:48:15.445Z,5400
2017-11-09T10:48:44.617Z,5573
2017-11-09T10:49:15.495Z,5767
2017-11-09T10:49:44.695Z,5943
2017-11-09T10:50:15.609Z,6003
2017-11-09T10:50:44.793Z,6010
2017-11-09T10:51:15.694Z,5937
2017-11-09T10:51:44.823Z,5807
2017-11-09T10:52:15.766Z,5713
2017-11-09T10:52:44.889Z,5677
2017-11-09T10:53:15.805Z,5650
2017-11-09T10:53:44.968Z,5597
2017-11-09T10:54:15.855Z,5513
2017-11-09T10:54:45.053Z,5430
2017-11-09T10:55:15.941Z,5363
2017-11-09T10:55:45.165Z,5343
2017-11-09T10:56:16.037Z,5353
2017-11-09T10:56:45.260Z,5383
2017-11-09T10:57:16.089Z,5380
2017-11-09T10:57:45.273Z,5347
2017-11-09T10:58:16.184Z,5260
2017-11-09T10:58:45.417Z,5170
2017-11-09T10:59:16.279Z,5063
2017-11-09T10:59:45.493Z,4933
2017-11-09T11:00:16.405Z,4783
2017-11-09T11:00:45.533Z,4633
2017-11-09T11:01:16.512Z,4533
2017-11-09T11:01:45.603Z,4530
2017-11-09T11:02:16.536Z,4480
2017-11-09T11:02:45.712Z,4407
2017-11-09T11:03:16.588Z,4283
2017-11-09T11:03:45.747Z,4150
2017-11-09T11:04:16.634Z,4043
2017-11-09T11:04:45.840Z,4003
2017-11-09T11:05:16.766Z,4040
2017-11-09T11:05:45.919Z,4110
2017-11-09T11:06:16.939Z,4203
2017-11-09T11:06:46.019Z,4300
2017-11-09T11:07:16.949Z,4380
2017-11-09T11:07:46.084Z,4470
2017-11-09T11:08:17.008Z,4580
2017-11-09T11:08:46.158Z,4683
2017-11-09T11:09:17.097Z,4800
2017-11-09T11:09:46.305Z,5063
2017-11-09T11:10:17.172Z,5543
2017-11-09T11:10:46.353Z,6083
2017-11-09T11:11:17.291Z,6620
2017-11-09T11:11:46.456Z,7250
2017-11-09T11:12:17.288Z,8227
2017-11-09T11:12:46.525Z,8867
2017-11-09T11:13:17.419Z,9237
2017-11-09T11:13:46.563Z,13133
2017-11-09T11:14:17.480Z,10137
2017-11-09T11:14:46.641Z,11437
2017-11-09T11:15:17.491Z,9823
2017-11-09T11:15:46.738Z,12187
2017-11-09T11:16:17.616Z,13853
2017-11-09T11:16:46.769Z,15137
2017-11-09T11:17:17.631Z,16990
2017-11-09T11:17:46.837Z,16897
2017-11-09T11:18:17.700Z,16440
2017-11-09T11:18:46.939Z,16570
2017-11-09T11:19:17.761Z,15530
2017-11-09T11:19:46.984Z,13430
2017-11-09T11:20:17.841Z,15123
2017-11-09T11:20:47.078Z,15713
2017-11-09T11:21:17.963Z,9250
2017-11-09T11:21:47.164Z,13277
2017-11-09T11:22:17.986Z,15113
2017-11-09T11:22:47.238Z,15763
2017-11-09T11:23:18.084Z,17210
2017-11-09T11:23:47.338Z,19023
2017-11-09T11:24:18.160Z,18107
2017-11-09T11:24:47.357Z,14257
2017-11-09T11:25:18.226Z,14587
2017-11-09T11:25:47.464Z,12560
2017-11-09T11:26:18.369Z,10977
2017-11-09T11:26:47.515Z,12137
2017-11-09T11:27:18.433Z,10757
2017-11-09T11:27:47.582Z,14430
2017-11-09T11:28:18.488Z,9740
2017-11-09T11:28:47.638Z,9567
2017-11-09T11:29:18.600Z,9207
2017-11-09T11:29:47.719Z,8853
2017-11-09T11:30:18.648Z,8493
2017-11-09T11:30:47.804Z,8587
2017-11-09T11:31:18.674Z,6703
2017-11-09T11:31:47.866Z,6413
2017-11-09T11:32:18.758Z,5823
2017-11-09T11:32:47.929Z,5727
2017-11-09T11:33:18.817Z,5610
2017-11-09T11:33:48.032Z,5497
2017-11-09T11:34:18.893Z,5460
2017-11-09T11:34:48.146Z,5610
2017-11-09T11:35:18.958Z,5980
2017-11-09T11:35:48.150Z,6510
2017-11-09T11:36:19.040Z,7027
2017-11-09T11:36:48.279Z,7313
2017-11-09T11:37:19.164Z,7623
2017-11-09T11:37:48.352Z,7907
2017-11-09T11:38:19.237Z,8147
2017-11-09T11:38:48.406Z,8753
2017-11-09T11:39:19.266Z,9183
2017-11-09T11:39:48.461Z,9723
2017-11-09T11:40:19.337Z,9417
2017-11-09T11:40:48.683Z,8330
2017-11-09T11:41:19.435Z,6277
2017-11-09T11:41:48.631Z,5920
2017-11-09T11:42:19.529Z,5350
2017-11-09T11:42:48.682Z,4933
2017-11-09T11:43:19.624Z,4787
2017-11-09T11:43:48.729Z,4703
2017-11-09T11:44:19.647Z,4727
2017-11-09T11:44:48.861Z,4810
2017-11-09T11:45:19.820Z,4907
2017-11-09T11:45:48.938Z,4953
2017-11-09T11:46:19.928Z,4957
2017-11-09T11:46:49.015Z,4757
2017-11-09T11:47:19.914Z,4523
2017-11-09T11:47:49.076Z,4310
2017-11-09T11:48:19.978Z,4043
2017-11-09T11:48:49.183Z,3853
2017-11-09T11:49:20.066Z,3707
2017-11-09T11:49:49.227Z,3593
2017-11-09T11:50:20.170Z,3487
2017-11-09T11:50:49.317Z,3443
2017-11-09T11:51:20.268Z,3427
2017-11-09T11:51:49.417Z,3410
2017-11-09T11:54:49.689Z,3820
2017-11-09T11:55:20.549Z,3793
2017-11-09T11:55:49.787Z,3950
2017-11-09T11:56:20.646Z,4123
2017-11-09T11:56:49.830Z,4243
2017-11-09T11:57:20.644Z,4343
2017-11-09T12:00:50.157Z,3637
2017-11-09T12:01:21.079Z,3263
2017-11-09T12:01:50.252Z,2987
2017-11-09T12:02:21.096Z,2817
2017-11-09T12:02:50.242Z,2690
2017-11-09T12:03:21.127Z,2460
2017-11-09T12:03:50.364Z,2267
2017-11-09T12:04:21.219Z,2127
2017-11-09T12:04:50.383Z,2010
2017-11-09T12:05:21.294Z,1900
2017-11-09T12:05:50.446Z,1800
2017-11-09T12:06:21.406Z,1723
2017-11-09T12:06:50.537Z,1713
2017-11-09T12:07:21.422Z,1770
2017-11-09T12:07:50.664Z,1813
2017-11-09T12:08:21.509Z,1900
2017-11-09T12:08:50.656Z,2033
2017-11-09T12:09:21.576Z,2147
2017-11-09T12:09:50.782Z,2213
2017-11-09T12:10:21.619Z,2307
2017-11-09T12:10:50.804Z,2423
2017-11-09T12:11:21.697Z,2553
2017-11-09T12:11:50.882Z,2650
2017-11-09T12:12:21.754Z,2640
2017-11-09T12:12:50.942Z,2557
2017-11-09T12:13:21.839Z,2467
2017-11-09T12:13:51.000Z,2393
2017-11-09T12:14:21.890Z,2343
2017-11-09T12:14:51.137Z,2293
2017-11-09T12:15:21.976Z,2287
2017-11-09T12:15:51.180Z,2307
2017-11-09T12:16:22.041Z,2260
2017-11-09T12:16:51.311Z,2230
2017-11-09T12:17:22.112Z,2173
2017-11-09T12:17:51.357Z,2150
2017-11-09T12:18:22.171Z,2140
2017-11-09T12:18:51.392Z,2107
2017-11-09T12:19:22.314Z,2067
2017-11-09T12:19:51.497Z,2023
2017-11-09T12:20:22.350Z,1970
2017-11-09T12:20:51.513Z,1930
2017-11-09T12:21:51.659Z,1947
2017-11-09T12:22:22.532Z,1977
2017-11-09T12:22:51.709Z,2017
2017-11-09T12:23:22.593Z,2030
2017-11-09T12:23:51.727Z,2020
2017-11-09T12:24:22.631Z,1983
2017-11-09T12:24:51.829Z,1950
2017-11-09T12:25:22.753Z,1920
2017-11-09T12:25:51.885Z,1890
2017-11-09T12:26:22.805Z,1863
2017-11-09T12:26:51.961Z,1850
2017-11-09T12:27:22.890Z,1840
2017-11-09T12:27:52.005Z,1837
2017-11-09T12:28:22.949Z,1833
2017-11-09T12:28:52.081Z,1837
2017-11-09T12:29:52.193Z,1830
2017-11-09T12:30:23.094Z,1860
2017-11-09T12:30:52.234Z,1890
2017-11-09T12:31:23.143Z,1903
2017-11-09T12:31:52.379Z,1873
2017-11-09T12:32:23.218Z,1843
2017-11-09T12:32:52.406Z,1813
2017-11-09T12:33:23.319Z,1797
2017-11-09T12:33:52.509Z,1787
2017-11-09T12:34:23.371Z,1783
2017-11-09T12:34:52.590Z,1797
2017-11-09T12:35:23.438Z,1833
2017-11-09T12:35:52.659Z,1890
2017-11-09T12:36:23.516Z,1953
2017-11-09T12:36:52.788Z,2037
2017-11-09T12:37:23.568Z,2123
2017-11-09T12:37:52.796Z,2260
2017-11-09T12:38:23.677Z,2407
2017-11-09T12:38:52.881Z,2557
2017-11-09T12:39:23.721Z,2660
2017-11-09T12:39:52.945Z,2737
2017-11-09T12:40:23.791Z,2800
2017-11-09T12:40:53.050Z,2857
2017-11-09T12:41:23.857Z,2883
2017-11-09T12:42:24.034Z,2890
2017-11-09T12:42:53.180Z,2897
2017-11-09T12:43:23.997Z,2920
2017-11-09T12:43:53.188Z,2913
2017-11-09T12:44:24.132Z,2870
2017-11-09T12:44:53.363Z,2800
2017-11-09T12:45:24.185Z,2717
2017-11-09T12:45:53.371Z,2633
2017-11-09T12:46:24.227Z,2547
2017-11-09T12:46:53.473Z,2417
2017-11-09T12:47:24.590Z,2240
2017-11-09T12:47:53.526Z,2110
2017-11-09T12:48:24.389Z,2027
2017-11-09T12:48:53.602Z,1940
2017-11-09T12:49:24.440Z,1797
2017-11-09T12:49:53.632Z,1667
2017-11-09T12:50:24.528Z,1570
2017-11-09T12:50:53.706Z,1467
2017-11-09T12:51:24.602Z,1350
2017-11-09T12:51:53.808Z,1247
2017-11-09T12:52:24.697Z,1147
2017-11-09T12:52:53.877Z,1063
2017-11-09T12:53:24.824Z,980
2017-11-09T12:53:53.921Z,920
2017-11-09T12:54:24.811Z,843
2017-11-09T12:54:54.022Z,763
2017-11-09T12:55:24.882Z,697
2017-11-09T12:55:54.117Z,633
2017-11-09T12:56:24.949Z,593
2017-11-09T12:56:54.150Z,573
2017-11-09T12:57:25.037Z,620
2017-11-09T12:57:54.223Z,720
2017-11-09T12:58:25.087Z,790
2017-11-09T12:58:54.350Z,763
2017-11-09T12:59:25.182Z,727
2017-11-09T12:59:54.388Z,723
2017-11-09T13:00:25.281Z,707
2017-11-09T13:01:25.357Z,747
2017-11-09T13:01:54.542Z,803
2017-11-09T13:02:25.485Z,890
2017-11-09T13:02:54.632Z,1017
2017-11-09T13:03:25.556Z,1157
2017-11-09T13:03:54.678Z,1287
2017-11-09T13:04:25.632Z,1397
2017-11-09T13:04:54.754Z,1460
2017-11-09T13:05:25.696Z,1490
2017-11-09T13:06:25.743Z,1473
2017-11-09T13:06:54.954Z,1443
2017-11-09T13:07:25.798Z,1397
2017-11-09T13:07:54.962Z,1367
2017-11-09T13:08:25.954Z,1330
2017-11-09T13:08:55.590Z,1287
2017-11-09T13:09:26.470Z,1253
2017-11-09T13:09:55.659Z,1213
2017-11-09T13:10:26.555Z,1173
2017-11-09T13:10:55.977Z,1130
2017-11-09T13:11:26.584Z,1077
2017-11-09T13:11:55.825Z,1023
2017-11-09T13:12:26.693Z,987
2017-11-09T13:12:55.870Z,937
2017-11-09T13:13:26.710Z,887
2017-11-09T13:13:55.929Z,833
2017-11-09T13:14:26.765Z,767
2017-11-09T13:14:55.988Z,690
2017-11-09T13:15:26.874Z,693
2017-11-09T13:15:56.103Z,727
2017-11-09T13:16:56.211Z,730
2017-11-09T13:17:27.005Z,720
2017-11-09T13:17:56.201Z,693
2017-11-09T13:18:27.062Z,653
2017-11-09T13:18:56.319Z,630
2017-11-09T13:19:27.187Z,643
2017-11-09T13:19:56.424Z,703
2017-11-09T13:20:27.235Z,733
2017-11-09T13:20:56.475Z,800
2017-11-09T13:21:27.379Z,890
2017-11-09T13:21:56.594Z,967
2017-11-09T13:22:27.421Z,1007
2017-11-09T13:22:56.640Z,1030
2017-11-09T13:23:27.547Z,1067
2017-11-09T13:23:56.667Z,1090
2017-11-09T13:24:27.563Z,1097
2017-11-09T13:24:56.735Z,1103
2017-11-09T13:25:27.634Z,1077
2017-11-09T13:25:56.840Z,1050
2017-11-09T13:26:27.744Z,1037
2017-11-09T13:26:56.944Z,1023
2017-11-09T13:27:56.949Z,1027
2017-11-09T13:28:27.816Z,1043
2017-11-09T13:28:57.004Z,1060
2017-11-09T13:29:27.919Z,1050
2017-11-09T13:29:57.077Z,1030
2017-11-09T13:30:27.967Z,1003
2017-11-09T13:30:57.161Z,1000
2017-11-09T13:31:28.043Z,1007
2017-11-09T13:31:57.435Z,1003